createdAt,value
2022-07-30T00:01:01.932Z,100110.79
2022-07-30T00:03:30.143Z,100106.60
2022-07-30T00:05:58.049Z,100102.50
2022-07-30T00:08:25.937Z,100104.76
2022-07-30T00:10:53.996Z,100096.66
2022-07-30T00:13:21.964Z,100095.41
2022-07-30T00:15:49.980Z,100098.04
2022-07-30T00:18:17.931Z,100099.02
2022-07-30T00:20:45.836Z,100098.42
2022-07-30T00:23:13.788Z,100096.37
2022-07-30T00:25:41.789Z,100086.41
2022-07-30T00:28:09.743Z,100088.52
2022-07-30T00:30:38.931Z,100091.90
2022-07-30T00:33:10.079Z,100088.52
2022-07-30T00:35:39.860Z,100088.14
2022-07-30T00:38:07.850Z,100087.23
2022-07-30T00:40:35.920Z,100087.81
2022-07-30T00:43:03.928Z,100087.05
2022-07-30T00:45:31.969Z,100082.02
2022-07-30T00:48:01.501Z,100083.67
2022-07-30T00:50:29.429Z,100081.27
2022-07-30T00:52:57.398Z,100088.09
2022-07-30T00:55:25.318Z,100089.48
2022-07-30T00:57:53.273Z,100087.35
2022-07-30T01:00:22.610Z,100086.05
2022-07-30T01:02:51.607Z,100085.02
2022-07-30T01:05:20.056Z,100080.82
2022-07-30T01:07:48.073Z,100083.44
2022-07-30T01:10:16.316Z,100086.25
2022-07-30T01:12:45.809Z,100083.40
2022-07-30T01:15:14.424Z,100080.09
2022-07-30T01:17:42.521Z,100073.49
2022-07-30T01:20:24.899Z,100067.30
2022-07-30T01:23:08.541Z,100064.20
2022-07-30T01:25:59.112Z,100058.95
2022-07-30T01:28:29.994Z,100066.20
2022-07-30T01:30:58.294Z,100068.66
2022-07-30T01:33:28.180Z,100064.04
2022-07-30T01:35:56.955Z,100060.48
2022-07-30T01:38:26.166Z,100054.20
2022-07-30T01:40:55.872Z,100052.27
2022-07-30T01:43:24.734Z,100051.27
2022-07-30T01:45:53.817Z,100052.71
2022-07-30T01:48:23.957Z,100053.14
2022-07-30T01:50:54.992Z,100054.10
2022-07-30T01:53:25.959Z,100050.95
2022-07-30T01:55:56.106Z,100047.35
2022-07-30T01:58:28.701Z,100052.72
2022-07-30T02:01:04.802Z,100055.33
2022-07-30T02:03:35.015Z,100056.88
2022-07-30T02:06:14.158Z,100053.51
2022-07-30T02:08:55.946Z,100052.23
2022-07-30T02:11:44.079Z,100051.29
2022-07-30T02:14:22.889Z,100048.30
2022-07-30T02:16:56.156Z,100042.09
2022-07-30T02:19:32.742Z,100046.52
2022-07-30T02:22:08.698Z,100043.10
2022-07-30T02:24:37.971Z,100038.48
2022-07-30T02:27:16.039Z,100032.25
2022-07-30T02:29:46.323Z,100024.38
2022-07-30T02:36:46.069Z,100023.35
2022-07-30T02:39:14.514Z,100024.94
2022-07-30T02:41:49.226Z,100026.77
2022-07-30T02:44:19.511Z,100024.15
2022-07-30T02:46:49.269Z,100025.69
2022-07-30T02:49:27.766Z,100024.90
2022-07-30T02:51:56.168Z,100023.70
2022-07-30T02:54:25.440Z,100017.94
2022-07-30T02:56:55.376Z,100013.30
2022-07-30T02:59:24.194Z,100011.56
2022-07-30T03:01:53.962Z,100005.80
2022-07-30T03:04:22.239Z,100000.88
2022-07-30T03:06:50.315Z,100006.92
2022-07-30T03:09:18.775Z,100005.68
2022-07-30T03:11:48.459Z,100004.05
2022-07-30T03:14:16.439Z,100008.07
2022-07-30T03:16:48.306Z,100004.54
2022-07-30T03:19:20.841Z,100004.23
2022-07-30T03:21:50.035Z,100005.83
2022-07-30T03:24:18.286Z,100002.71
2022-07-30T03:26:47.116Z,100003.51
2022-07-30T03:29:16.823Z,100004.88
2022-07-30T03:31:50.291Z,100004.04
2022-07-30T03:34:19.851Z,100001.20
2022-07-30T03:36:47.956Z,100000.77
2022-07-30T03:39:16.610Z,100000.14
2022-07-30T03:41:45.672Z,99998.31
2022-07-30T03:44:15.410Z,100003.20
2022-07-30T03:46:43.777Z,100003.93
2022-07-30T03:49:12.544Z,100005.34
2022-07-30T03:51:43.786Z,99997.65
2022-07-30T03:54:13.788Z,99999.54
2022-07-30T03:56:42.525Z,99999.75
2022-07-30T03:59:14.331Z,99994.98
2022-07-30T04:01:42.480Z,99996.80
2022-07-30T04:04:21.529Z,99994.94
2022-07-30T04:06:50.155Z,99994.88
2022-07-30T04:09:20.815Z,99996.43
2022-07-30T04:11:48.810Z,99992.35
2022-07-30T04:14:18.723Z,99988.11
2022-07-30T04:16:48.311Z,99987.23
2022-07-30T04:19:42.425Z,99987.46
2022-07-30T04:22:12.479Z,99985.32
2022-07-30T04:24:40.739Z,99984.92
2022-07-30T04:27:09.288Z,99983.64
2022-07-30T04:29:37.611Z,99985.02
2022-07-30T04:32:07.938Z,99985.16
2022-07-30T04:34:56.149Z,99984.63
2022-07-30T04:37:42.743Z,99984.20
2022-07-30T04:40:11.098Z,99988.13
2022-07-30T04:42:39.857Z,99982.90
2022-07-30T04:45:12.320Z,99985.67
2022-07-30T04:47:53.809Z,99985.81
2022-07-30T04:50:28.004Z,99988.46
2022-07-30T04:52:57.051Z,99991.11
2022-07-30T04:55:30.702Z,99988.66
2022-07-30T04:58:02.575Z,99993.65
2022-07-30T05:00:37.690Z,99998.05
2022-07-30T05:03:12.551Z,99996.06
2022-07-30T05:05:43.316Z,100001.02
2022-07-30T05:08:12.808Z,99998.42
2022-07-30T05:10:40.889Z,100004.04
2022-07-30T05:13:14.341Z,100010.47
2022-07-30T05:15:44.815Z,100012.60
2022-07-30T05:18:13.256Z,100018.89
2022-07-30T05:20:43.805Z,100012.80
2022-07-30T05:23:18.185Z,100021.25
2022-07-30T05:25:52.206Z,100020.30
2022-07-30T05:28:29.725Z,100021.30
2022-07-30T05:30:59.363Z,100025.50
2022-07-30T05:33:41.129Z,100026.53
2022-07-30T05:36:15.273Z,100026.52
2022-07-30T05:38:44.173Z,100021.57
2022-07-30T05:41:32.948Z,100024.50
2022-07-30T05:44:33.172Z,100023.98
2022-07-30T05:47:01.483Z,100023.62
2022-07-30T05:49:29.722Z,100029.48
2022-07-30T05:52:05.486Z,100027.36
2022-07-30T05:54:34.475Z,100024.80
2022-07-30T05:57:20.786Z,100026.12
2022-07-30T05:59:50.404Z,100027.65
2022-07-30T06:02:44.956Z,100027.73
2022-07-30T06:05:22.507Z,100026.65
2022-07-30T06:07:51.660Z,100022.38
2022-07-30T06:10:22.160Z,100019.14
2022-07-30T06:12:50.286Z,100016.25
2022-07-30T06:15:26.179Z,100021.87
2022-07-30T06:18:01.738Z,100017.17
2022-07-30T06:20:52.350Z,100017.61
2022-07-30T06:23:52.498Z,100017.45
2022-07-30T06:26:31.674Z,100014.65
2022-07-30T06:29:00.037Z,100016.92
2022-07-30T06:31:30.994Z,100017.61
2022-07-30T06:33:59.518Z,100020.48
2022-07-30T06:36:30.569Z,100022.75
2022-07-30T06:39:04.148Z,100018.68
2022-07-30T06:41:50.146Z,100018.17
2022-07-30T06:44:18.319Z,100011.57
2022-07-30T06:47:08.202Z,100014.61
2022-07-30T06:49:38.571Z,100012.73
2022-07-30T06:52:09.052Z,100006.92
2022-07-30T06:54:37.280Z,100005.17
2022-07-30T06:57:19.798Z,100005.00
2022-07-30T06:59:56.296Z,100009.56
2022-07-30T07:02:35.047Z,100009.41
2022-07-30T07:05:11.590Z,100010.86
2022-07-30T07:07:44.531Z,100015.79
2022-07-30T07:10:21.767Z,100016.45
2022-07-30T07:13:01.156Z,100014.66
2022-07-30T07:15:36.763Z,100016.25
2022-07-30T07:18:06.738Z,100013.27
2022-07-30T07:20:39.952Z,100009.98
2022-07-30T07:23:12.266Z,100007.02
2022-07-30T07:25:41.626Z,100005.38
2022-07-30T07:28:12.870Z,100004.69
2022-07-30T07:30:43.266Z,100006.98
2022-07-30T07:33:12.278Z,100012.53
2022-07-30T07:35:49.757Z,100014.59
2022-07-30T07:38:24.978Z,100018.84
2022-07-30T07:40:54.202Z,100019.61
2022-07-30T07:43:22.678Z,100024.64
2022-07-30T07:45:51.253Z,100021.66
2022-07-30T07:48:20.019Z,100018.90
2022-07-30T07:50:54.998Z,100018.50
2022-07-30T07:53:28.881Z,100014.02
2022-07-30T07:55:57.406Z,100020.23
2022-07-30T07:58:26.851Z,100023.64
2022-07-30T08:00:58.348Z,100022.55
2022-07-30T08:03:34.672Z,100021.54
2022-07-30T08:06:06.806Z,100021.17
2022-07-30T08:08:48.646Z,100020.62
2022-07-30T08:11:54.793Z,100023.36
2022-07-30T08:14:41.086Z,100027.70
2022-07-30T08:17:33.250Z,100034.02
2022-07-30T08:20:12.074Z,100040.17
2022-07-30T08:22:41.242Z,100041.26
2022-07-30T08:25:09.810Z,100043.08
2022-07-30T08:27:38.100Z,100047.23
2022-07-30T08:30:12.287Z,100045.00
2022-07-30T08:32:40.907Z,100042.65
2022-07-30T08:35:12.843Z,100043.73
2022-07-30T08:37:42.302Z,100038.27
2022-07-30T08:40:11.123Z,100037.27
2022-07-30T08:42:48.662Z,100030.19
2022-07-30T08:45:18.346Z,100031.31
2022-07-30T08:47:47.211Z,100025.33
2022-07-30T08:50:23.431Z,100024.94
2022-07-30T08:53:08.457Z,100023.48
2022-07-30T08:55:37.095Z,100027.90
2022-07-30T08:58:06.430Z,100024.34
2022-07-30T09:00:34.572Z,100025.02
2022-07-30T09:03:02.827Z,100021.53
2022-07-30T09:05:31.662Z,100025.73
2022-07-30T09:08:00.179Z,100023.33
2022-07-30T09:10:28.170Z,100028.73
2022-07-30T09:12:56.217Z,100027.70
2022-07-30T09:15:25.634Z,100029.98
2022-07-30T09:18:04.203Z,100034.48
2022-07-30T09:20:35.700Z,100038.33
2022-07-30T09:23:07.085Z,100042.14
2022-07-30T09:25:42.864Z,100041.30
2022-07-30T09:28:32.159Z,100046.92
2022-07-30T09:31:16.754Z,100040.54
2022-07-30T09:34:03.163Z,100045.20
2022-07-30T09:36:49.461Z,100053.71
2022-07-30T09:39:41.732Z,100055.73
2022-07-30T09:42:27.257Z,100052.90
2022-07-30T09:45:12.418Z,100055.95
2022-07-30T09:47:45.004Z,100053.91
2022-07-30T09:50:29.416Z,100052.73
2022-07-30T09:53:07.861Z,100043.42
2022-07-30T09:55:41.073Z,100043.16
2022-07-30T09:58:13.004Z,100046.34
2022-07-30T10:01:01.371Z,100047.52
2022-07-30T10:03:48.540Z,100040.05
2022-07-30T10:06:42.791Z,100037.52
2022-07-30T10:09:28.314Z,100039.23
2022-07-30T10:12:02.794Z,100033.60
2022-07-30T10:14:34.812Z,100033.45
2022-07-30T10:21:41.710Z,100034.91
2022-07-30T10:24:27.581Z,100033.34
2022-07-30T10:27:14.527Z,100035.05
2022-07-30T10:30:06.329Z,100035.65
2022-07-30T10:32:34.388Z,100027.70
2022-07-30T10:35:02.906Z,100027.11
2022-07-30T10:37:33.479Z,100025.59
2022-07-30T10:40:15.854Z,100024.88
2022-07-30T10:43:00.880Z,100020.48
2022-07-30T10:45:35.005Z,100020.73
2022-07-30T10:48:12.213Z,100023.02
2022-07-30T10:50:56.834Z,100016.53
2022-07-30T10:53:40.742Z,100017.71
2022-07-30T10:56:25.598Z,100021.31
2022-07-30T10:59:09.789Z,100018.29
2022-07-30T11:01:48.763Z,100014.77
2022-07-30T11:04:25.544Z,100012.17
2022-07-30T11:07:23.624Z,100014.01
2022-07-30T11:10:05.163Z,100008.48
2022-07-30T11:12:44.150Z,100010.00
2022-07-30T11:15:18.926Z,100010.00
2022-07-30T11:18:00.993Z,100009.40
2022-07-30T11:20:30.695Z,100011.96
2022-07-30T11:23:14.004Z,100015.79
2022-07-30T11:25:51.049Z,100009.58
2022-07-30T11:28:41.182Z,100004.92
2022-07-30T11:31:55.142Z,100008.09
2022-07-30T11:34:19.635Z,99999.80
2022-07-30T11:37:18.269Z,99999.16
2022-07-30T11:39:56.502Z,99997.18
2022-07-30T11:42:29.708Z,99999.45
2022-07-30T11:45:18.236Z,99995.15
2022-07-30T11:47:52.548Z,99996.10
2022-07-30T11:50:26.196Z,99994.70
2022-07-30T11:52:59.291Z,99990.41
2022-07-30T11:55:34.471Z,99991.84
2022-07-30T11:58:05.850Z,99990.98
2022-07-30T12:00:42.056Z,99993.55
2022-07-30T12:03:12.115Z,99990.52
2022-07-30T12:05:40.517Z,99990.25
2022-07-30T12:08:09.248Z,99992.02
2022-07-30T12:10:59.997Z,99994.59
2022-07-30T12:13:43.871Z,99989.14
2022-07-30T12:16:18.671Z,99990.20
2022-07-30T12:18:47.829Z,99992.33
2022-07-30T12:21:16.157Z,99991.55
2022-07-30T12:23:55.746Z,99992.52
2022-07-30T12:26:26.732Z,99986.73
2022-07-30T12:28:57.021Z,99984.45
2022-07-30T12:31:25.873Z,99985.30
2022-07-30T12:33:56.338Z,99983.84
2022-07-30T12:36:30.730Z,99977.48
2022-07-30T12:38:59.883Z,99974.39
2022-07-30T12:41:46.691Z,99975.63
2022-07-30T12:44:33.854Z,99977.33
2022-07-30T12:47:03.345Z,99973.98
2022-07-30T12:49:37.594Z,99971.81
2022-07-30T12:52:28.199Z,99965.73
2022-07-30T12:55:11.364Z,99965.95
2022-07-30T12:57:51.602Z,99972.41
2022-07-30T13:00:19.782Z,99971.73
2022-07-30T13:02:48.666Z,99970.52
2022-07-30T13:05:16.733Z,99969.59
2022-07-30T13:08:00.442Z,99972.59
2022-07-30T13:10:31.263Z,99974.02
2022-07-30T13:12:59.897Z,99978.81
2022-07-30T13:15:27.913Z,99977.52
2022-07-30T13:17:55.912Z,99976.46
2022-07-30T13:20:24.105Z,99977.61
2022-07-30T13:22:52.121Z,99975.40
2022-07-30T13:25:20.524Z,99974.42
2022-07-30T13:27:48.507Z,99973.09
2022-07-30T13:30:16.509Z,99972.09
2022-07-30T13:32:44.472Z,99975.21
2022-07-30T13:35:13.037Z,99976.38
2022-07-30T13:37:40.952Z,99976.12
2022-07-30T13:40:09.917Z,99970.63
2022-07-30T13:42:37.931Z,99972.30
2022-07-30T13:45:07.381Z,99972.35
2022-07-30T13:47:35.740Z,99975.46
2022-07-30T13:50:04.386Z,99972.29
2022-07-30T13:52:32.596Z,99970.23
2022-07-30T13:55:02.627Z,99967.47
2022-07-30T13:57:30.554Z,99967.11
2022-07-30T13:59:58.466Z,99968.91
2022-07-30T14:02:26.405Z,99968.56
2022-07-30T14:04:56.129Z,99970.18
2022-07-30T14:07:24.756Z,99967.22
2022-07-30T14:09:54.686Z,99966.83
2022-07-30T14:12:22.843Z,99964.48
2022-07-30T14:14:50.770Z,99960.63
2022-07-30T14:17:18.969Z,99959.39
2022-07-30T14:19:47.453Z,99960.33
2022-07-30T14:22:15.838Z,99960.35
2022-07-30T14:24:43.885Z,99960.33
2022-07-30T14:27:11.896Z,99958.14
2022-07-30T14:29:39.803Z,99955.12
2022-07-30T14:32:07.810Z,99955.23
2022-07-30T14:34:35.796Z,99955.36
2022-07-30T14:37:04.801Z,99952.42
2022-07-30T14:39:33.022Z,99952.38
2022-07-30T14:42:01.052Z,99952.47
2022-07-30T14:44:29.037Z,99950.02
2022-07-30T14:46:56.966Z,99946.35
2022-07-30T14:49:24.970Z,99942.73
2022-07-30T14:51:53.486Z,99945.25
2022-07-30T14:54:22.591Z,99944.80
2022-07-30T14:56:54.875Z,99949.23
2022-07-30T14:59:24.561Z,99950.62
2022-07-30T15:01:52.781Z,99956.20
2022-07-30T15:04:21.092Z,99953.86
2022-07-30T15:06:49.222Z,99956.25
2022-07-30T15:09:17.208Z,99956.89
2022-07-30T15:12:07.901Z,99960.40
2022-07-30T15:14:33.202Z,99958.23
2022-07-30T15:17:04.264Z,99957.45
2022-07-30T15:19:33.052Z,99956.52
2022-07-30T15:22:02.742Z,99958.95
2022-07-30T15:24:32.654Z,99963.30
2022-07-30T15:27:00.645Z,99961.08
2022-07-30T15:29:30.866Z,99965.17
2022-07-30T15:32:00.545Z,99959.50
2022-07-30T15:34:34.015Z,99959.86
2022-07-30T15:37:03.072Z,99958.17
2022-07-30T15:39:33.053Z,99963.55
2022-07-30T15:42:02.503Z,99967.14
2022-07-30T15:44:30.761Z,99963.33
2022-07-30T15:46:59.895Z,99957.27
2022-07-30T15:49:28.464Z,99959.27
2022-07-30T15:51:59.741Z,99956.14
2022-07-30T15:54:28.353Z,99957.39
2022-07-30T15:57:01.210Z,99958.80
2022-07-30T15:59:30.551Z,99958.55
2022-07-30T16:01:58.795Z,99960.08
2022-07-30T16:04:31.325Z,99957.59
2022-07-30T16:07:04.239Z,99954.73
2022-07-30T16:09:32.482Z,99956.54
2022-07-30T16:12:00.538Z,99959.56
2022-07-30T16:14:28.622Z,99961.97
2022-07-30T16:16:56.785Z,99965.37
2022-07-30T16:19:24.751Z,99966.20
2022-07-30T16:21:52.864Z,99963.84
2022-07-30T16:24:20.954Z,99967.96
2022-07-30T16:26:48.981Z,99965.45
2022-07-30T16:29:18.141Z,99966.96
2022-07-30T16:31:47.108Z,99965.80
2022-07-30T16:34:16.334Z,99964.30
2022-07-30T16:36:44.523Z,99965.03
2022-07-30T16:39:12.591Z,99967.91
2022-07-30T16:41:40.780Z,99965.73
2022-07-30T16:44:08.939Z,99963.98
2022-07-30T16:46:38.687Z,99962.00
2022-07-30T16:49:08.649Z,99962.93
2022-07-30T16:51:37.954Z,99964.20
2022-07-30T16:54:07.716Z,99964.70
2022-07-30T16:56:35.666Z,99963.66
2022-07-30T16:59:03.671Z,99966.09
2022-07-30T17:01:32.289Z,99966.29
2022-07-30T17:04:00.319Z,99964.04
2022-07-30T17:06:28.406Z,99962.29
2022-07-30T17:08:56.431Z,99963.80
2022-07-30T17:11:47.380Z,99964.86
2022-07-30T17:14:12.973Z,99968.18
2022-07-30T17:16:41.433Z,99973.20
2022-07-30T17:19:09.895Z,99971.81
2022-07-30T17:21:38.466Z,99974.02
2022-07-30T17:24:11.127Z,99973.13
2022-07-30T17:26:42.998Z,99973.18
2022-07-30T17:29:14.708Z,99974.09
2022-07-30T17:31:44.619Z,99969.80
2022-07-30T17:34:14.741Z,99974.33
2022-07-30T17:36:51.492Z,99979.29
2022-07-30T17:40:06.031Z,99980.67
2022-07-30T17:42:11.471Z,99982.29
2022-07-30T17:44:43.227Z,99977.38
2022-07-30T17:47:14.526Z,99980.30
2022-07-30T17:49:44.799Z,99981.33
2022-07-30T17:52:14.008Z,99979.17
2022-07-30T17:54:42.026Z,99977.50
2022-07-30T17:57:10.148Z,99979.35
2022-07-30T17:59:38.635Z,99976.14
2022-07-30T18:02:07.107Z,99978.05
2022-07-30T18:04:35.648Z,99979.06
2022-07-30T18:07:04.758Z,99981.84
2022-07-30T18:09:38.949Z,99981.21
2022-07-30T18:12:08.743Z,99980.02
2022-07-30T18:14:37.564Z,99986.21
2022-07-30T18:17:06.865Z,99984.88
2022-07-30T18:19:37.079Z,99986.81
2022-07-30T18:22:05.294Z,99995.39
2022-07-30T18:24:40.018Z,99990.39
2022-07-30T18:27:10.132Z,99995.54
2022-07-30T18:29:40.561Z,99997.05
2022-07-30T18:32:09.010Z,100000.33
2022-07-30T18:34:37.577Z,100000.75
2022-07-30T18:37:05.722Z,100001.99
2022-07-30T18:39:34.054Z,100002.87
2022-07-30T18:42:03.857Z,100006.83
2022-07-30T18:44:32.239Z,100006.60
2022-07-30T18:47:00.321Z,100002.73
2022-07-30T18:49:37.516Z,100008.12
2022-07-30T18:52:07.599Z,100009.89
2022-07-30T18:54:36.975Z,100015.72
2022-07-30T18:57:05.788Z,100018.27
2022-07-30T18:59:34.393Z,100018.64
2022-07-30T19:02:04.812Z,100017.23
2022-07-30T19:04:33.455Z,100022.38
2022-07-30T19:07:02.126Z,100031.05
2022-07-30T19:09:33.498Z,100028.55
2022-07-30T19:12:02.403Z,100028.60
2022-07-30T19:14:31.184Z,100034.14
2022-07-30T19:17:00.010Z,100034.44
2022-07-30T19:19:28.516Z,100035.30
2022-07-30T19:21:57.205Z,100036.83
2022-07-30T19:24:26.985Z,100034.45
2022-07-30T19:26:56.566Z,100036.66
2022-07-30T19:29:24.674Z,100041.05
2022-07-30T19:31:54.049Z,100040.22
2022-07-30T19:34:22.170Z,100043.88
2022-07-30T19:36:50.933Z,100039.27
2022-07-30T19:39:21.747Z,100041.55
2022-07-30T19:41:50.999Z,100045.26
2022-07-30T19:44:19.719Z,100047.66
2022-07-30T19:46:48.853Z,100052.55
2022-07-30T19:49:20.364Z,100050.50
2022-07-30T19:52:17.694Z,100057.80
2022-07-30T19:54:38.625Z,100056.96
2022-07-30T19:57:07.254Z,100055.91
2022-07-30T19:59:59.677Z,100059.11
2022-07-30T20:02:37.975Z,100060.35
2022-07-30T20:05:11.143Z,100059.26
2022-07-30T20:07:40.300Z,100055.09
2022-07-30T20:10:14.163Z,100061.52
2022-07-30T20:12:49.017Z,100063.88
2022-07-30T20:15:17.924Z,100062.95
2022-07-30T20:17:46.494Z,100066.10
2022-07-30T20:20:15.170Z,100062.45
2022-07-30T20:22:43.178Z,100068.56
2022-07-30T20:25:12.791Z,100068.42
2022-07-30T20:27:41.963Z,100072.80
2022-07-30T20:30:12.060Z,100072.84
2022-07-30T20:32:46.413Z,100070.93
2022-07-30T20:35:14.787Z,100070.74
2022-07-30T20:37:55.612Z,100074.86
2022-07-30T20:40:26.617Z,100077.62
2022-07-30T20:42:55.107Z,100078.16
2022-07-30T20:45:24.658Z,100076.60
2022-07-30T20:47:56.749Z,100081.69
2022-07-30T20:50:30.965Z,100084.05
2022-07-30T20:52:59.640Z,100081.79
2022-07-30T20:55:28.381Z,100081.01
2022-07-30T20:58:11.155Z,100089.19
2022-07-30T21:00:42.244Z,100088.58
2022-07-30T21:03:21.242Z,100091.59
2022-07-30T21:05:51.272Z,100096.00
2022-07-30T21:08:25.189Z,100098.23
2022-07-30T21:10:53.747Z,100102.55
2022-07-30T21:13:24.916Z,100101.27
2022-07-30T21:16:02.326Z,100100.80
2022-07-30T21:18:32.779Z,100102.90
2022-07-30T21:21:05.548Z,100108.65
2022-07-30T21:23:33.965Z,100106.09
2022-07-30T21:26:05.780Z,100107.17
2022-07-30T21:28:36.284Z,100109.84
2022-07-30T21:31:06.788Z,100108.88
2022-07-30T21:33:36.744Z,100109.00
2022-07-30T21:36:10.163Z,100113.04
2022-07-30T21:38:42.895Z,100117.52
2022-07-30T21:41:14.084Z,100119.00
2022-07-30T21:43:46.548Z,100122.96
2022-07-30T21:46:24.992Z,100126.38
2022-07-30T21:48:58.310Z,100126.70
2022-07-30T21:51:27.219Z,100127.92
2022-07-30T21:53:55.129Z,100125.88
2022-07-30T21:56:25.859Z,100129.27
2022-07-30T21:58:54.479Z,100124.94
2022-07-30T22:01:22.761Z,100125.85
2022-07-30T22:04:02.683Z,100126.94
2022-07-30T22:09:34.285Z,100126.70
2022-07-30T22:12:09.259Z,100130.67
2022-07-30T22:14:39.134Z,100130.41
2022-07-30T22:17:19.249Z,100129.52
2022-07-30T22:19:51.893Z,100131.15
2022-07-30T22:22:26.838Z,100129.97
2022-07-30T22:24:58.298Z,100125.44
2022-07-30T22:27:39.553Z,100130.50
2022-07-30T22:30:10.589Z,100126.52
2022-07-30T22:32:42.862Z,100135.03
2022-07-30T22:35:12.141Z,100134.45
2022-07-30T22:37:45.939Z,100133.94
2022-07-30T22:40:13.931Z,100133.54
2022-07-30T22:45:43.564Z,100132.77
2022-07-30T22:48:17.648Z,100134.95
2022-07-30T22:50:48.473Z,100133.77
2022-07-30T22:54:02.908Z,100134.98
2022-07-30T22:56:14.122Z,100135.38
2022-07-30T22:58:44.212Z,100136.98
2022-07-30T23:01:12.846Z,100136.63
2022-07-30T23:03:41.422Z,100135.25
2022-07-30T23:06:14.476Z,100137.06
2022-07-30T23:08:42.831Z,100130.38
2022-07-30T23:11:11.114Z,100130.65
2022-07-30T23:12:28.283Z,100123.71
2022-07-30T23:12:32.194Z,100133.80
2022-07-30T23:13:40.150Z,100135.27
2022-07-30T23:16:08.419Z,100137.45
2022-07-30T23:18:36.421Z,100135.84
2022-07-30T23:21:05.025Z,100134.52
2022-07-30T23:23:34.030Z,100137.79
2022-07-30T23:26:04.058Z,100136.37
2022-07-30T23:28:32.366Z,100137.50
2022-07-30T23:31:00.713Z,100137.34
2022-07-30T23:33:28.707Z,100137.87
2022-07-30T23:35:57.191Z,100139.61
2022-07-30T23:38:25.291Z,100139.98
2022-07-30T23:40:54.112Z,100140.05
2022-07-30T23:43:22.257Z,100139.31
2022-07-30T23:45:50.332Z,100141.13
2022-07-30T23:48:18.602Z,100141.79
2022-07-30T23:50:46.575Z,100147.59
2022-07-30T23:53:14.498Z,100149.73
2022-07-30T23:55:45.972Z,100150.34
2022-07-30T23:58:14.015Z,100150.95
